createdAt,value
2018-10-02T00:01:08.734Z,98884.23
2018-10-02T00:03:37.171Z,98882.95
2018-10-02T00:06:05.434Z,98887.04
2018-10-02T00:08:33.712Z,98893.42
2018-10-02T00:11:07.497Z,98888.41
2018-10-02T00:13:41.224Z,98886.16
2018-10-02T00:16:09.541Z,98894.10
2018-10-02T00:18:37.870Z,98889.73
2018-10-02T00:21:06.107Z,98894.10
2018-10-02T00:23:34.564Z,98895.12
2018-10-02T00:26:02.877Z,98894.41
2018-10-02T00:28:31.153Z,98899.86
2018-10-02T00:31:05.815Z,98897.85
2018-10-02T00:33:34.187Z,98893.11
2018-10-02T00:36:02.462Z,98889.40
2018-10-02T00:38:31.046Z,98884.67
2018-10-02T00:40:59.355Z,98891.08
2018-10-02T00:43:27.614Z,98887.02
2018-10-02T00:45:56.099Z,98889.88
2018-10-02T00:48:24.563Z,98885.02
2018-10-02T00:50:52.922Z,98889.84
2018-10-02T00:53:21.174Z,98895.58
2018-10-02T00:55:49.472Z,98895.37
2018-10-02T00:58:17.715Z,98893.30
2018-10-02T01:00:46.333Z,98895.19
2018-10-02T01:03:14.909Z,98899.62
2018-10-02T01:05:43.183Z,98904.28
2018-10-02T01:08:11.591Z,98896.39
2018-10-02T01:10:40.074Z,98897.00
2018-10-02T01:13:08.417Z,98902.24
2018-10-02T01:15:36.684Z,98897.16
2018-10-02T01:18:05.065Z,98901.16
2018-10-02T01:20:33.390Z,98905.06
2018-10-02T01:23:01.659Z,98893.67
2018-10-02T01:25:29.920Z,98897.44
2018-10-02T01:27:58.236Z,98893.44
2018-10-02T01:30:26.562Z,98898.05
2018-10-02T01:32:54.870Z,98897.05
2018-10-02T01:35:23.412Z,98896.87
2018-10-02T01:37:51.848Z,98890.81
2018-10-02T01:40:20.113Z,98894.20
2018-10-02T01:42:48.375Z,98895.43
2018-10-02T01:45:16.799Z,98894.33
2018-10-02T01:47:45.062Z,98898.38
2018-10-02T01:50:14.466Z,98897.39
2018-10-02T01:52:42.809Z,98901.39
2018-10-02T01:55:11.083Z,98902.66
2018-10-02T01:57:39.411Z,98910.50
2018-10-02T02:00:07.970Z,98905.92
2018-10-02T02:02:36.480Z,98913.12
2018-10-02T02:05:05.393Z,98921.71
2018-10-02T02:07:33.824Z,98923.88
2018-10-02T02:10:02.160Z,98928.16
2018-10-02T02:12:30.571Z,98924.42
2018-10-02T02:14:58.837Z,98926.68
2018-10-02T02:17:27.261Z,98929.71
2018-10-02T02:19:55.567Z,98927.30
2018-10-02T02:22:23.963Z,98922.87
2018-10-02T02:24:52.499Z,98930.45
2018-10-02T02:27:20.816Z,98928.71
2018-10-02T02:29:49.665Z,98926.30
2018-10-02T02:32:18.046Z,98927.44
2018-10-02T02:34:46.456Z,98933.79
2018-10-02T02:37:14.747Z,98935.20
2018-10-02T02:39:43.417Z,98929.09
2018-10-02T02:42:11.836Z,98932.42
2018-10-02T02:44:40.128Z,98938.17
2018-10-02T02:47:13.609Z,98940.16
2018-10-02T02:49:47.319Z,98939.75
2018-10-02T02:52:17.095Z,98944.30
2018-10-02T02:54:45.406Z,98942.06
2018-10-02T02:57:13.782Z,98940.44
2018-10-02T02:59:42.244Z,98937.66
2018-10-02T03:02:10.551Z,98948.77
2018-10-02T03:04:38.927Z,98949.20
2018-10-02T03:07:07.562Z,98941.50
2018-10-02T03:09:35.860Z,98947.13
2018-10-02T03:12:04.287Z,98948.06
2018-10-02T03:14:32.731Z,98950.05
2018-10-02T03:17:01.325Z,98951.42
2018-10-02T03:19:29.657Z,98952.22
2018-10-02T03:21:58.162Z,98959.32
2018-10-02T03:24:26.479Z,98961.38
2018-10-02T03:26:54.914Z,98959.98
2018-10-02T03:29:23.266Z,98961.70
2018-10-02T03:31:51.711Z,98963.26
2018-10-02T03:34:20.044Z,98962.39
2018-10-02T03:36:48.574Z,98960.00
2018-10-02T03:39:17.119Z,98958.08
2018-10-02T03:41:45.395Z,98959.91
2018-10-02T03:44:14.698Z,98959.20
2018-10-02T03:46:43.000Z,98957.00
2018-10-02T03:49:11.874Z,98958.41
2018-10-02T03:51:40.229Z,98961.11
2018-10-02T03:54:08.576Z,98962.18
2018-10-02T03:56:36.895Z,98964.48
2018-10-02T03:59:05.329Z,98958.52
2018-10-02T04:01:33.608Z,98969.05
2018-10-02T04:04:01.929Z,98967.52
2018-10-02T04:06:30.486Z,98971.19
2018-10-02T04:08:58.961Z,98969.72
2018-10-02T04:11:27.345Z,98972.28
2018-10-02T04:13:55.752Z,98976.60
2018-10-02T04:16:24.119Z,98976.58
2018-10-02T04:18:52.472Z,98970.70
2018-10-02T04:21:28.147Z,98971.53
2018-10-02T04:23:56.424Z,98974.94
2018-10-02T04:26:25.201Z,98972.08
2018-10-02T04:28:55.010Z,98975.80
2018-10-02T04:31:23.355Z,98973.95
2018-10-02T04:33:51.792Z,98974.81
2018-10-02T04:36:20.224Z,98977.02
2018-10-02T04:38:48.543Z,98976.31
2018-10-02T04:41:16.979Z,98970.53
2018-10-02T04:43:45.222Z,98971.95
2018-10-02T04:46:13.601Z,98965.46
2018-10-02T04:48:41.943Z,98959.63
2018-10-02T04:51:11.797Z,98965.30
2018-10-02T04:53:40.151Z,98966.16
2018-10-02T04:56:09.579Z,98965.88
2018-10-02T04:58:37.912Z,98969.94
2018-10-02T05:01:06.471Z,98969.72
2018-10-02T05:03:34.804Z,98972.81
2018-10-02T05:06:03.191Z,98977.83
2018-10-02T05:08:31.760Z,98978.06
2018-10-02T05:11:00.306Z,98974.16
2018-10-02T05:13:28.592Z,98977.22
2018-10-02T05:15:57.191Z,98974.16
2018-10-02T05:18:25.604Z,98975.16
2018-10-02T05:20:53.898Z,98970.65
2018-10-02T05:23:22.354Z,98972.36
2018-10-02T05:25:50.738Z,98972.52
2018-10-02T05:28:19.034Z,98972.75
2018-10-02T05:30:47.492Z,98973.98
2018-10-02T05:33:15.982Z,98976.69
2018-10-02T05:35:44.460Z,98978.92
2018-10-02T05:38:12.837Z,98988.09
2018-10-02T05:40:41.299Z,98971.58
2018-10-02T05:43:09.608Z,98964.12
2018-10-02T05:45:38.032Z,98961.22
2018-10-02T05:48:06.496Z,98957.80
2018-10-02T05:50:34.848Z,98969.50
2018-10-02T05:53:03.125Z,98971.81
2018-10-02T05:55:31.426Z,98960.11
2018-10-02T05:57:59.825Z,98957.42
2018-10-02T06:00:28.120Z,98956.28
2018-10-02T06:02:56.478Z,98971.02
2018-10-02T06:05:24.839Z,98977.28
2018-10-02T06:07:53.177Z,98974.23
2018-10-02T06:10:21.463Z,98973.86
2018-10-02T06:12:49.844Z,98982.34
2018-10-02T06:15:18.155Z,98987.72
2018-10-02T06:17:46.420Z,98991.23
2018-10-02T06:20:14.949Z,98996.49
2018-10-02T06:22:43.379Z,98995.78
2018-10-02T06:25:11.767Z,98999.00
2018-10-02T06:27:40.244Z,99010.77
2018-10-02T06:30:08.645Z,99007.55
2018-10-02T06:32:37.252Z,99011.45
2018-10-02T06:35:05.582Z,99014.09
2018-10-02T06:37:34.081Z,99007.02
2018-10-02T06:40:02.624Z,99007.87
2018-10-02T06:42:31.105Z,99002.48
2018-10-02T06:44:59.479Z,99011.80
2018-10-02T06:47:27.897Z,99007.06
2018-10-02T06:49:56.218Z,99016.11
2018-10-02T06:52:24.801Z,99018.87
2018-10-02T06:54:52.944Z,99017.45
2018-10-02T06:57:21.413Z,99016.65
2018-10-02T06:59:49.758Z,99006.96
2018-10-02T07:02:18.106Z,99006.83
2018-10-02T07:04:46.520Z,99003.31
2018-10-02T07:07:14.864Z,99002.76
2018-10-02T07:09:43.408Z,98995.41
2018-10-02T07:12:11.728Z,98990.36
2018-10-02T07:14:40.249Z,98992.94
2018-10-02T07:17:08.497Z,98987.45
2018-10-02T07:19:36.810Z,98995.86
2018-10-02T07:22:05.190Z,99005.33
2018-10-02T07:24:33.474Z,99018.13
2018-10-02T07:27:02.245Z,99021.95
2018-10-02T07:29:30.536Z,99028.27
2018-10-02T07:31:58.833Z,99029.88
2018-10-02T07:34:27.189Z,99028.11
2018-10-02T07:36:55.643Z,99022.32
2018-10-02T07:39:24.093Z,99013.73
2018-10-02T07:41:52.611Z,99027.24
2018-10-02T07:44:20.893Z,99022.70
2018-10-02T07:46:49.329Z,99033.03
2018-10-02T07:49:17.858Z,99028.89
2018-10-02T07:51:46.646Z,99022.09
2018-10-02T07:54:15.079Z,99010.98
2018-10-02T07:56:43.447Z,99006.81
2018-10-02T07:59:11.772Z,99008.54
2018-10-02T08:01:40.261Z,99015.92
2018-10-02T08:04:08.612Z,99029.09
2018-10-02T08:06:36.936Z,99021.22
2018-10-02T08:09:08.409Z,99021.57
2018-10-02T08:11:37.575Z,99019.02
2018-10-02T08:14:06.287Z,99019.66
2018-10-02T08:16:34.547Z,99023.13
2018-10-02T08:19:02.892Z,99023.91
2018-10-02T08:21:31.228Z,99012.39
2018-10-02T08:23:59.643Z,99019.00
2018-10-02T08:26:27.878Z,99008.95
2018-10-02T08:28:56.324Z,99013.05
2018-10-02T08:31:24.595Z,99013.20
2018-10-02T08:33:52.916Z,99010.84
2018-10-02T08:36:21.683Z,99014.82
2018-10-02T08:38:49.875Z,99017.44
2018-10-02T08:41:18.194Z,99013.06
2018-10-02T08:43:49.536Z,99005.09
2018-10-02T08:46:17.986Z,99002.30
2018-10-02T08:48:46.535Z,98999.69
2018-10-02T08:51:14.950Z,99000.97
2018-10-02T08:53:43.333Z,98999.87
2018-10-02T08:56:12.065Z,99000.89
2018-10-02T08:58:40.455Z,98997.63
2018-10-02T09:01:09.663Z,98995.42
2018-10-02T09:03:38.088Z,99006.83
2018-10-02T09:06:06.380Z,99010.98
2018-10-02T09:08:34.949Z,99008.81
2018-10-02T09:11:03.409Z,99008.88
2018-10-02T09:13:31.794Z,99005.97
2018-10-02T09:16:00.238Z,99011.13
2018-10-02T09:18:28.542Z,99004.83
2018-10-02T09:20:56.926Z,99010.91
2018-10-02T09:23:25.191Z,99015.56
2018-10-02T09:25:53.534Z,99017.82
2018-10-02T09:28:21.895Z,99005.75
2018-10-02T09:30:55.836Z,99015.56
2018-10-02T09:33:29.299Z,99012.19
2018-10-02T09:36:03.031Z,98999.44
2018-10-02T09:38:36.708Z,98997.81
2018-10-02T09:41:10.600Z,98996.72
2018-10-02T09:43:42.224Z,99003.72
2018-10-02T09:46:10.638Z,98996.11
2018-10-02T09:48:39.169Z,98995.30
2018-10-02T09:51:07.652Z,98992.34
2018-10-02T09:53:36.092Z,98990.51
2018-10-02T09:56:04.416Z,99009.44
2018-10-02T09:58:33.076Z,99007.66
2018-10-02T10:01:05.555Z,98997.80
2018-10-02T10:03:34.184Z,98987.30
2018-10-02T10:06:02.575Z,98990.86
2018-10-02T10:08:31.134Z,98992.89
2018-10-02T10:10:59.526Z,98994.33
2018-10-02T10:13:27.972Z,98996.74
2018-10-02T10:15:59.517Z,98989.36
2018-10-02T10:18:27.920Z,98981.58
2018-10-02T10:20:56.308Z,98981.68
2018-10-02T10:23:24.933Z,98982.55
2018-10-02T10:25:53.293Z,98978.75
2018-10-02T10:28:21.865Z,98995.14
2018-10-02T10:30:50.147Z,98980.20
2018-10-02T10:33:18.839Z,98984.05
2018-10-02T10:35:47.174Z,98982.66
2018-10-02T10:38:15.510Z,98978.66
2018-10-02T10:40:43.989Z,98971.27
2018-10-02T10:43:12.575Z,98975.87
2018-10-02T10:45:40.906Z,98979.87
2018-10-02T10:48:09.289Z,98980.52
2018-10-02T10:50:37.724Z,98963.49
2018-10-02T10:53:06.174Z,98973.63
2018-10-02T10:55:35.963Z,98973.75
2018-10-02T10:58:04.268Z,98976.06
2018-10-02T11:00:37.451Z,98978.13
2018-10-02T11:03:07.474Z,98975.91
2018-10-02T11:05:36.525Z,98971.52
2018-10-02T11:08:05.213Z,98969.82
2018-10-02T11:10:33.645Z,98973.83
2018-10-02T11:13:03.753Z,98978.31
2018-10-02T11:15:33.370Z,98970.47
2018-10-02T11:18:02.386Z,98969.89
2018-10-02T11:20:37.536Z,98981.02
2018-10-02T11:23:06.187Z,98976.00
2018-10-02T11:25:34.924Z,98966.54
2018-10-02T11:28:03.268Z,98954.19
2018-10-02T11:30:31.690Z,98963.39
2018-10-02T11:33:00.367Z,98944.63
2018-10-02T11:35:31.711Z,98944.05
2018-10-02T11:38:00.876Z,98934.45
2018-10-02T11:40:29.293Z,98925.63
2018-10-02T11:42:57.724Z,98923.61
2018-10-02T11:45:26.097Z,98919.34
2018-10-02T11:47:54.458Z,98926.13
2018-10-02T11:50:22.887Z,98922.91
2018-10-02T11:52:51.263Z,98923.58
2018-10-02T11:55:19.642Z,98929.11
2018-10-02T11:57:47.948Z,98918.73
2018-10-02T12:00:16.331Z,98909.59
2018-10-02T12:02:44.684Z,98903.39
2018-10-02T12:05:13.183Z,98920.23
2018-10-02T12:07:41.491Z,98909.92
2018-10-02T12:10:09.869Z,98912.30
2018-10-02T12:12:38.171Z,98902.50
2018-10-02T12:15:06.548Z,98911.58
2018-10-02T12:17:34.916Z,98899.59
2018-10-02T12:20:03.442Z,98890.51
2018-10-02T12:22:31.625Z,98899.69
2018-10-02T12:24:59.966Z,98895.07
2018-10-02T12:27:28.407Z,98889.02
2018-10-02T12:29:56.810Z,98906.63
2018-10-02T12:32:25.186Z,98900.38
2018-10-02T12:34:53.513Z,98897.14
2018-10-02T12:37:21.815Z,98902.39
2018-10-02T12:39:50.075Z,98910.44
2018-10-02T12:42:18.453Z,98906.28
2018-10-02T12:44:46.820Z,98900.62
2018-10-02T12:47:15.144Z,98903.58
2018-10-02T12:49:43.527Z,98899.52
2018-10-02T12:52:11.894Z,98893.31
2018-10-02T12:54:40.106Z,98895.69
2018-10-02T12:57:08.605Z,98893.77
2018-10-02T12:59:36.930Z,98877.07
2018-10-02T13:02:05.209Z,98869.73
2018-10-02T13:04:33.544Z,98870.20
2018-10-02T13:07:01.911Z,98860.89
2018-10-02T13:09:30.176Z,98862.52
2018-10-02T13:11:58.599Z,98852.89
2018-10-02T13:14:26.963Z,98868.21
2018-10-02T13:16:55.270Z,98868.36
2018-10-02T13:19:23.712Z,98866.63
2018-10-02T13:21:52.047Z,98857.84
2018-10-02T13:24:20.372Z,98855.31
2018-10-02T13:26:48.752Z,98853.03
2018-10-02T13:29:17.025Z,98845.33
2018-10-02T13:31:45.352Z,98842.94
2018-10-02T13:34:14.445Z,98834.00
2018-10-02T13:36:42.715Z,98832.09
2018-10-02T13:39:11.212Z,98836.63
2018-10-02T13:41:39.669Z,98828.73
2018-10-02T13:44:08.161Z,98831.03
2018-10-02T13:46:36.788Z,98833.05
2018-10-02T13:49:05.123Z,98832.75
2018-10-02T13:51:33.529Z,98844.16
2018-10-02T13:54:01.887Z,98847.36
2018-10-02T13:56:30.421Z,98851.05
2018-10-02T13:58:58.693Z,98853.00
2018-10-02T14:01:27.209Z,98844.66
2018-10-02T14:03:55.395Z,98852.00
2018-10-02T14:06:23.623Z,98854.80
2018-10-02T14:08:52.010Z,98848.66
2018-10-02T14:11:20.267Z,98869.27
2018-10-02T14:13:48.508Z,98853.75
2018-10-02T14:16:16.862Z,98851.17
2018-10-02T14:18:45.353Z,98851.71
2018-10-02T14:21:13.869Z,98851.97
2018-10-02T14:23:42.241Z,98846.39
2018-10-02T14:26:10.558Z,98853.78
2018-10-02T14:28:38.867Z,98852.06
2018-10-02T14:31:07.284Z,98845.10
2018-10-02T14:33:35.713Z,98856.52
2018-10-02T14:36:04.804Z,98853.89
2018-10-02T14:38:33.323Z,98843.16
2018-10-02T14:41:01.917Z,98838.59
2018-10-02T14:43:30.406Z,98844.64
2018-10-02T14:45:58.931Z,98843.63
2018-10-02T14:48:27.319Z,98839.12
2018-10-02T14:50:55.757Z,98838.66
2018-10-02T14:53:24.040Z,98837.24
2018-10-02T14:55:52.372Z,98836.55
2018-10-02T14:58:20.663Z,98835.03
2018-10-02T15:00:49.079Z,98832.30
2018-10-02T15:03:17.700Z,98832.11
2018-10-02T15:05:46.678Z,98829.02
2018-10-02T15:08:15.327Z,98822.73
2018-10-02T15:10:43.895Z,98826.82
2018-10-02T15:13:12.425Z,98824.52
2018-10-02T15:15:40.788Z,98822.11
2018-10-02T15:18:09.327Z,98828.09
2018-10-02T15:20:37.877Z,98830.55
2018-10-02T15:23:06.328Z,98827.37
2018-10-02T15:25:34.904Z,98825.72
2018-10-02T15:28:03.264Z,98826.20
2018-10-02T15:30:31.662Z,98826.87
2018-10-02T15:32:59.993Z,98822.63
2018-10-02T15:35:28.371Z,98821.19
2018-10-02T15:37:56.862Z,98820.42
2018-10-02T15:40:25.833Z,98815.11
2018-10-02T15:42:54.167Z,98816.33
2018-10-02T15:45:23.072Z,98817.13
2018-10-02T15:47:51.545Z,98816.34
2018-10-02T15:50:21.053Z,98825.80
2018-10-02T15:52:51.840Z,98823.08
2018-10-02T15:55:20.477Z,98824.45
2018-10-02T15:57:50.062Z,98827.50
2018-10-02T16:00:18.559Z,98823.67
2018-10-02T16:02:47.190Z,98823.88
2018-10-02T16:05:15.522Z,98826.05
2018-10-02T16:07:45.993Z,98828.45
2018-10-02T16:10:14.348Z,98825.21
2018-10-02T16:12:44.156Z,98832.38
2018-10-02T16:15:12.548Z,98829.53
2018-10-02T16:17:41.006Z,98831.01
2018-10-02T16:21:12.407Z,98825.02
2018-10-02T16:23:40.842Z,98822.27
2018-10-02T16:26:09.203Z,98826.63
2018-10-02T16:28:37.542Z,98823.88
2018-10-02T16:31:06.288Z,98818.66
2018-10-02T16:33:34.735Z,98824.35
2018-10-02T16:36:03.190Z,98831.47
2018-10-02T16:38:34.490Z,98834.86
2018-10-02T16:41:02.794Z,98838.51
2018-10-02T16:43:31.152Z,98837.12
2018-10-02T16:45:59.507Z,98846.36
2018-10-02T16:48:27.828Z,98854.54
2018-10-02T16:50:56.179Z,98856.08
2018-10-02T16:53:24.540Z,98854.71
2018-10-02T16:55:52.851Z,98852.81
2018-10-02T16:58:21.256Z,98857.58
2018-10-02T17:00:50.025Z,98854.27
2018-10-02T17:03:18.646Z,98855.48
2018-10-02T17:05:47.133Z,98855.88
2018-10-02T17:08:15.453Z,98857.48
2018-10-02T17:10:43.837Z,98861.34
2018-10-02T17:13:12.161Z,98859.20
2018-10-02T17:15:40.618Z,98871.88
2018-10-02T17:18:09.224Z,98861.84
2018-10-02T17:20:37.827Z,98873.03
2018-10-02T17:23:07.754Z,98872.83
2018-10-02T17:25:36.168Z,98879.34
2018-10-02T17:28:04.544Z,98875.02
2018-10-02T17:30:32.871Z,98872.55
2018-10-02T17:33:01.519Z,98871.30
2018-10-02T17:35:29.976Z,98869.91
2018-10-02T17:37:58.306Z,98879.12
2018-10-02T17:40:26.823Z,98881.48
2018-10-02T17:42:55.985Z,98878.84
2018-10-02T17:45:24.987Z,98887.52
2018-10-02T17:47:53.634Z,98887.50
2018-10-02T17:50:22.137Z,98890.73
2018-10-02T17:52:50.584Z,98884.77
2018-10-02T17:55:25.933Z,98889.64
2018-10-02T17:57:54.280Z,98888.56
2018-10-02T18:00:22.775Z,98893.60
2018-10-02T18:02:51.109Z,98892.45
2018-10-02T18:05:19.538Z,98884.22
2018-10-02T18:07:47.885Z,98876.30
2018-10-02T18:10:16.265Z,98880.49
2018-10-02T18:12:44.936Z,98878.72
2018-10-02T18:15:13.390Z,98883.86
2018-10-02T18:17:41.729Z,98884.92
2018-10-02T18:20:10.168Z,98893.73
2018-10-02T18:22:38.863Z,98896.27
2018-10-02T18:25:07.307Z,98904.40
2018-10-02T18:27:35.889Z,98910.86
2018-10-02T18:30:04.572Z,98912.59
2018-10-02T18:32:32.949Z,98918.39
2018-10-02T18:35:01.511Z,98908.66
2018-10-02T18:37:29.804Z,98916.02
2018-10-02T18:39:58.660Z,98920.57
2018-10-02T18:42:27.078Z,98916.50
2018-10-02T18:44:55.304Z,98933.68
2018-10-02T18:47:23.755Z,98923.87
2018-10-02T18:49:52.433Z,98937.91
2018-10-02T18:52:20.752Z,98930.62
2018-10-02T18:54:49.420Z,98934.55
2018-10-02T18:57:17.807Z,98944.31
2018-10-02T18:59:46.261Z,98938.08
2018-10-02T19:02:14.607Z,98943.04
2018-10-02T19:04:42.947Z,98949.12
2018-10-02T19:07:11.473Z,98957.66
2018-10-02T19:09:40.030Z,98951.73
2018-10-02T19:12:12.939Z,98964.30
2018-10-02T19:14:41.470Z,98961.81
2018-10-02T19:17:09.832Z,98958.83
2018-10-02T19:19:43.596Z,98958.23
2018-10-02T19:22:12.452Z,98961.88
2018-10-02T19:24:40.879Z,98967.59
2018-10-02T19:27:09.342Z,98975.83
2018-10-02T19:29:37.926Z,98972.13
2018-10-02T19:32:08.657Z,98984.59
2018-10-02T19:34:37.140Z,98983.84
2018-10-02T19:37:09.898Z,98973.48
2018-10-02T19:39:38.222Z,98970.23
2018-10-02T19:42:06.791Z,98975.80
2018-10-02T19:44:35.274Z,98973.88
2018-10-02T19:47:03.694Z,98976.63
2018-10-02T19:49:33.493Z,98976.61
2018-10-02T19:52:07.026Z,98967.06
2018-10-02T19:54:35.512Z,98974.98
2018-10-02T19:57:03.882Z,98979.61
2018-10-02T19:59:32.548Z,98973.11
2018-10-02T20:02:01.111Z,98978.56
2018-10-02T20:04:29.564Z,98983.59
2018-10-02T20:06:58.581Z,98978.56
2018-10-02T20:09:26.972Z,98981.22
2018-10-02T20:11:55.433Z,98983.77
2018-10-02T20:14:23.956Z,98980.05
2018-10-02T20:16:52.216Z,98979.54
2018-10-02T20:19:20.686Z,98983.02
2018-10-02T20:21:49.077Z,98982.22
2018-10-02T20:24:18.016Z,98990.91
2018-10-02T20:26:46.422Z,98994.98
2018-10-02T20:29:14.877Z,98980.17
2018-10-02T20:31:45.044Z,98989.46
2018-10-02T20:34:13.832Z,98982.94
2018-10-02T20:36:42.313Z,98988.75
2018-10-02T20:39:11.498Z,98987.16
2018-10-02T20:41:40.048Z,98984.37
2018-10-02T20:44:08.760Z,98993.65
2018-10-02T20:46:37.100Z,98989.47
2018-10-02T20:49:05.612Z,98987.80
2018-10-02T20:51:33.962Z,98979.52
2018-10-02T20:54:02.362Z,98977.95
2018-10-02T20:56:31.148Z,98977.41
2018-10-02T20:58:59.832Z,98967.59
2018-10-02T21:01:28.574Z,98972.23
2018-10-02T21:03:57.128Z,98971.27
2018-10-02T21:06:25.817Z,98962.64
2018-10-02T21:08:54.295Z,98966.02
2018-10-02T21:11:22.821Z,98967.81
2018-10-02T21:13:51.249Z,98954.64
2018-10-02T21:16:19.560Z,98962.49
2018-10-02T21:18:47.974Z,98960.28
2018-10-02T21:21:16.284Z,98962.58
2018-10-02T21:23:44.830Z,98951.52
2018-10-02T21:26:14.360Z,98952.26
2018-10-02T21:28:42.813Z,98952.04
2018-10-02T21:31:11.415Z,98952.38
2018-10-02T21:33:39.827Z,98958.65
2018-10-02T21:36:08.824Z,98960.38
2018-10-02T21:38:37.163Z,98962.83
2018-10-02T21:41:05.549Z,98963.91
2018-10-02T21:43:33.908Z,98963.66
2018-10-02T21:46:02.437Z,98971.62
2018-10-02T21:48:30.887Z,98972.75
2018-10-02T21:50:59.316Z,98968.66
2018-10-02T21:53:27.608Z,98958.87
2018-10-02T21:55:56.118Z,98962.30
2018-10-02T21:58:25.014Z,98970.11
2018-10-02T22:00:57.684Z,98973.80
2018-10-02T22:03:26.114Z,98972.12
2018-10-02T22:05:54.712Z,98964.21
2018-10-02T22:08:23.498Z,98975.44
2018-10-02T22:10:51.975Z,98969.50
2018-10-02T22:13:20.485Z,98980.33
2018-10-02T22:15:49.122Z,98971.37
2018-10-02T22:18:17.445Z,98968.33
2018-10-02T22:20:45.772Z,98964.46
2018-10-02T22:23:14.308Z,98962.77
2018-10-02T22:25:42.644Z,98962.14
2018-10-02T22:28:11.034Z,98959.34
2018-10-02T22:30:39.942Z,98958.72
2018-10-02T22:33:08.419Z,98954.09
2018-10-02T22:35:36.714Z,98953.30
2018-10-02T22:38:05.218Z,98952.67
2018-10-02T22:40:33.557Z,98948.16
2018-10-02T22:43:01.878Z,98945.25
2018-10-02T22:45:30.480Z,98949.95
2018-10-02T22:47:58.773Z,98958.14
2018-10-02T22:50:27.054Z,98960.92
2018-10-02T22:52:55.566Z,98952.14
2018-10-02T22:55:24.800Z,98951.41
2018-10-02T22:57:53.968Z,98958.80
2018-10-02T23:00:22.521Z,98950.16
2018-10-02T23:02:50.805Z,98945.14
2018-10-02T23:05:19.114Z,98944.63
2018-10-02T23:07:49.440Z,98950.09
2018-10-02T23:10:17.744Z,98951.97
2018-10-02T23:12:46.092Z,98952.98
2018-10-02T23:15:14.430Z,98950.66
2018-10-02T23:17:43.128Z,98956.87
2018-10-02T23:20:11.409Z,98960.04
2018-10-02T23:22:39.777Z,98958.27
2018-10-02T23:25:08.146Z,98943.00
2018-10-02T23:27:36.503Z,98946.14
2018-10-02T23:30:05.037Z,98942.80
2018-10-02T23:32:33.688Z,98936.82
2018-10-02T23:35:02.174Z,98931.15
2018-10-02T23:37:30.616Z,98932.48
2018-10-02T23:39:58.925Z,98929.20
2018-10-02T23:42:27.246Z,98928.57
2018-10-02T23:44:56.318Z,98923.96
2018-10-02T23:47:24.654Z,98927.50
2018-10-02T23:49:53.412Z,98930.34
2018-10-02T23:52:21.819Z,98927.61
2018-10-02T23:54:50.146Z,98926.33
2018-10-02T23:57:18.735Z,98925.09
2018-10-02T23:59:46.988Z,98917.70
